Time;durP1;ratioP1;P1;durP2;ratioP2;P2;SDS_P1;SDS_P2;PMS_P1;PMS_P2;Temp;Humidity;BMP_temperature;BMP_pressure;BME280_temperature;BME280_humidity;BME280_pressure;Samples;Min_cycle;Max_cycle;Signal;HPM_P1;HPM_P2
2021/01/07 00:00:14;;;;;;;3.13;1.00;;;5.80;80.00;;;;;;5092991;28;20028;-70
2021/01/07 00:02:40;;;;;;;1.15;0.60;;;5.70;80.00;;;;;;5093468;28;20028;-69
2021/01/07 00:05:07;;;;;;;1.65;0.80;;;5.80;80.00;;;;;;5092406;28;20016;-69
2021/01/07 00:07:33;;;;;;;0.68;0.68;;;5.80;80.00;;;;;;5093118;28;20032;-69
2021/01/07 00:09:59;;;;;;;1.00;0.85;;;5.80;80.00;;;;;;5092994;28;20035;-69
2021/01/07 00:12:25;;;;;;;0.47;0.47;;;5.70;80.00;;;;;;5092443;28;20111;-70
2021/01/07 00:14:50;;;;;;;1.30;0.60;;;5.70;80.00;;;;;;5091852;28;20066;-69
2021/01/07 00:17:16;;;;;;;0.73;0.73;;;5.70;80.10;;;;;;5093037;28;20036;-70
2021/01/07 00:19:42;;;;;;;1.63;1.02;;;5.70;80.10;;;;;;5092568;28;20105;-69
2021/01/07 00:22:07;;;;;;;1.08;0.98;;;5.70;80.10;;;;;;5092533;28;20046;-69
2021/01/07 00:24:33;;;;;;;1.67;1.58;;;5.70;80.20;;;;;;5093069;28;20061;-69
2021/01/07 00:26:58;;;;;;;3.72;1.15;;;5.70;80.30;;;;;;5092045;28;20364;-69
2021/01/07 00:29:24;;;;;;;0.82;0.82;;;5.70;80.30;;;;;;5092719;28;20035;-69
2021/01/07 00:31:50;;;;;;;3.33;1.10;;;5.70;80.30;;;;;;5093120;28;20024;-69
2021/01/07 00:34:15;;;;;;;3.80;1.50;;;5.70;80.30;;;;;;5106185;28;20023;-69
2021/01/07 00:36:41;;;;;;;1.58;1.10;;;5.70;80.30;;;;;;5092770;28;20381;-69
2021/01/07 00:39:06;;;;;;;3.80;1.50;;;5.70;80.30;;;;;;5092104;28;20043;-69
2021/01/07 00:41:33;;;;;;;3.15;1.27;;;5.70;80.30;;;;;;5092526;28;20047;-69
2021/01/07 00:43:58;;;;;;;2.25;1.63;;;5.70;80.30;;;;;;5093127;28;20047;-69
2021/01/07 00:46:24;;;;;;;2.42;1.30;;;5.70;80.30;;;;;;5092050;28;20035;-69
2021/01/07 00:48:50;;;;;;;1.35;1.10;;;5.80;80.30;;;;;;5092943;28;20020;-69
2021/01/07 00:51:16;;;;;;;1.17;0.98;;;5.80;80.20;;;;;;5091274;28;20105;-69
2021/01/07 00:53:44;;;;;;;2.55;1.50;;;5.80;80.20;;;;;;5090742;28;20028;-69
2021/01/07 00:56:15;;;;;;;4.45;1.20;;;5.80;80.10;;;;;;5092558;28;20103;-69
2021/01/07 00:58:43;;;;;;;2.42;1.58;;;5.80;80.10;;;;;;5101894;28;20447;-69
2021/01/07 01:01:09;;;;;;;2.08;1.10;;;5.80;80.10;;;;;;5102793;28;20107;-69
2021/01/07 01:03:35;;;;;;;2.55;1.35;;;5.80;80.10;;;;;;5096480;28;20024;-69
2021/01/07 01:06:00;;;;;;;5.97;1.50;;;5.80;80.10;;;;;;5096697;28;20024;-69
2021/01/07 01:08:26;;;;;;;4.25;1.40;;;5.80;80.10;;;;;;5095656;28;20062;-69
2021/01/07 01:10:51;;;;;;;5.75;1.30;;;5.90;80.10;;;;;;5096478;28;20024;-69
2021/01/07 01:13:17;;;;;;;2.08;1.13;;;5.90;80.00;;;;;;5096490;28;20349;-69
2021/01/07 01:15:43;;;;;;;1.15;1.05;;;5.90;79.90;;;;;;5095849;28;20031;-69
2021/01/07 01:18:09;;;;;;;0.95;0.77;;;5.90;79.90;;;;;;5096523;28;20101;-69
2021/01/07 01:20:35;;;;;;;1.35;1.05;;;5.90;79.80;;;;;;5095916;28;20032;-69
2021/01/07 01:23:01;;;;;;;3.92;2.13;;;5.90;79.80;;;;;;5095581;28;20047;-69
2021/01/07 01:25:28;;;;;;;1.58;1.00;;;5.90;79.80;;;;;;5095850;28;20024;-69
2021/01/07 01:27:53;;;;;;;1.05;0.80;;;5.90;79.80;;;;;;5096430;28;20051;-69
2021/01/07 01:30:20;;;;;;;1.95;0.88;;;5.90;79.70;;;;;;5095429;28;20028;-69
2021/01/07 01:32:46;;;;;;;0.80;0.80;;;5.90;79.70;;;;;;5099510;28;20027;-69
2021/01/07 01:35:13;;;;;;;1.23;1.10;;;5.80;79.60;;;;;;5107001;28;20490;-69
2021/01/07 01:37:40;;;;;;;2.90;0.95;;;5.90;79.90;;;;;;5095328;28;20546;-69
2021/01/07 01:40:08;;;;;;;0.77;0.77;;;5.80;79.80;;;;;;5095825;28;20032;-69
2021/01/07 01:42:34;;;;;;;1.58;1.42;;;5.80;79.90;;;;;;5094983;28;20028;-69
2021/01/07 01:45:00;;;;;;;0.98;0.95;;;5.80;79.90;;;;;;5095919;28;20031;-69
2021/01/07 01:47:26;;;;;;;0.82;0.82;;;5.70;80.00;;;;;;5095673;28;20101;-69
2021/01/07 01:49:54;;;;;;;0.47;0.47;;;5.70;80.00;;;;;;5094910;28;20035;-69
2021/01/07 01:52:21;;;;;;;1.48;1.02;;;5.70;80.10;;;;;;5095710;28;20032;-69
2021/01/07 01:54:47;;;;;;;0.70;0.70;;;5.70;80.10;;;;;;5095752;28;20064;-69
2021/01/07 01:57:14;;;;;;;0.40;0.40;;;5.70;80.10;;;;;;5095203;28;20059;-69
2021/01/07 01:59:40;;;;;;;2.42;1.55;;;5.60;80.10;;;;;;5095612;28;20032;-69
2021/01/07 02:02:15;;;;;;;1.50;1.02;;;5.70;80.20;;;;;;5095470;28;20067;-69
2021/01/07 02:04:41;;;;;;;1.08;0.90;;;5.70;80.30;;;;;;5094666;28;20050;-69
2021/01/07 02:07:10;;;;;;;3.80;1.15;;;5.70;80.30;;;;;;5095391;28;20484;-69
2021/01/07 02:09:36;;;;;;;1.95;1.23;;;5.70;80.40;;;;;;5094982;28;20028;-69
2021/01/07 02:12:02;;;;;;;0.93;0.90;;;5.70;80.40;;;;;;5094719;28;20031;-69
2021/01/07 02:14:28;;;;;;;2.42;1.42;;;5.70;80.40;;;;;;5095466;28;20028;-69
2021/01/07 02:16:57;;;;;;;2.80;1.50;;;5.70;80.40;;;;;;5095196;28;20043;-69
2021/01/07 02:19:23;;;;;;;1.20;0.82;;;5.80;80.50;;;;;;5094477;28;20028;-69
2021/01/07 02:21:49;;;;;;;0.43;0.43;;;5.70;80.40;;;;;;5094556;28;20455;-69
2021/01/07 02:24:18;;;;;;;0.75;0.75;;;5.70;80.30;;;;;;5095356;28;20063;-69
2021/01/07 02:26:44;;;;;;;0.80;0.80;;;5.70;80.30;;;;;;5094481;28;20031;-69
2021/01/07 02:29:11;;;;;;;1.42;0.90;;;5.70;80.30;;;;;;5094981;28;20030;-69
2021/01/07 02:31:36;;;;;;;2.13;1.20;;;5.70;80.30;;;;;;5094197;28;20039;-69
2021/01/07 02:34:02;;;;;;;0.75;0.75;;;5.70;80.30;;;;;;5108965;28;20024;-69
2021/01/07 02:36:28;;;;;;;0.93;0.63;;;5.70;80.30;;;;;;5094614;28;20036;-69
2021/01/07 02:38:54;;;;;;;1.00;0.77;;;5.70;80.30;;;;;;5094287;28;20104;-69
2021/01/07 02:41:19;;;;;;;0.82;0.80;;;5.70;80.40;;;;;;5094531;28;20123;-69
2021/01/07 02:43:45;;;;;;;4.22;1.05;;;5.60;80.40;;;;;;5094800;28;20507;-69
2021/01/07 02:46:11;;;;;;;0.32;0.32;;;5.60;80.30;;;;;;5093814;28;20043;-69
2021/01/07 02:48:36;;;;;;;0.50;0.50;;;5.70;80.40;;;;;;5094418;28;20040;-69
2021/01/07 02:51:02;;;;;;;2.05;1.10;;;5.60;80.40;;;;;;5094567;28;20064;-69
2021/01/07 02:53:28;;;;;;;0.85;0.85;;;5.60;80.40;;;;;;5093843;28;20103;-69
2021/01/07 02:55:53;;;;;;;0.98;0.88;;;5.60;80.40;;;;;;5094655;28;20415;-69
2021/01/07 02:58:19;;;;;;;1.85;0.95;;;5.60;80.50;;;;;;5094160;28;20433;-69
2021/01/07 03:00:45;;;;;;;1.50;0.90;;;5.60;80.50;;;;;;5093677;28;20042;-69
2021/01/07 03:03:10;;;;;;;1.02;0.95;;;5.60;80.50;;;;;;5094149;28;20085;-69
2021/01/07 03:05:36;;;;;;;1.25;1.15;;;5.60;80.60;;;;;;5094299;28;20039;-69
2021/01/07 03:08:02;;;;;;;2.03;0.70;;;5.60;80.50;;;;;;5093493;28;20431;-68
2021/01/07 03:10:27;;;;;;;0.40;0.40;;;5.60;80.50;;;;;;5094210;28;20114;-68
2021/01/07 03:12:53;;;;;;;0.60;0.60;;;5.60;80.50;;;;;;5094319;28;20135;-69
2021/01/07 03:15:19;;;;;;;0.55;0.55;;;5.60;80.50;;;;;;5093137;28;20425;-69
2021/01/07 03:17:45;;;;;;;4.13;0.80;;;5.60;80.60;;;;;;5094256;28;20028;-68
2021/01/07 03:20:14;;;;;;;0.40;0.40;;;5.60;80.70;;;;;;5093591;28;20020;-69
2021/01/07 03:22:41;;;;;;;2.13;0.70;;;5.60;80.70;;;;;;5092413;28;20143;-68
2021/01/07 03:25:08;;;;;;;0.73;0.70;;;5.60;80.70;;;;;;5093913;28;20031;-69
2021/01/07 03:27:35;;;;;;;0.75;0.70;;;5.60;80.70;;;;;;5093805;28;20031;-69
2021/01/07 03:30:02;;;;;;;0.95;0.90;;;5.60;80.70;;;;;;5093242;28;20028;-69
2021/01/07 03:32:27;;;;;;;0.60;0.60;;;5.50;80.70;;;;;;5094362;28;20020;-69
2021/01/07 03:34:53;;;;;;;1.55;0.60;;;5.60;80.70;;;;;;5106328;28;20039;-69
2021/01/07 03:37:19;;;;;;;0.47;0.47;;;5.50;80.70;;;;;;5098575;28;20448;-69
2021/01/07 03:39:45;;;;;;;0.63;0.63;;;5.50;80.70;;;;;;5094460;28;20024;-69
2021/01/07 03:42:11;;;;;;;0.70;0.70;;;5.50;80.70;;;;;;5092734;28;20043;-69
2021/01/07 03:44:37;;;;;;;0.30;0.30;;;5.50;80.70;;;;;;5093624;28;20111;-69
2021/01/07 03:47:03;;;;;;;0.40;0.40;;;5.50;80.80;;;;;;5093407;28;20028;-69
2021/01/07 03:49:29;;;;;;;0.50;0.50;;;5.40;80.80;;;;;;5092701;28;20028;-69
2021/01/07 03:51:54;;;;;;;0.82;0.45;;;5.40;80.90;;;;;;5093703;28;20024;-69
2021/01/07 03:54:20;;;;;;;0.50;0.50;;;5.40;81.00;;;;;;5093158;28;20072;-69
2021/01/07 03:56:46;;;;;;;0.45;0.45;;;5.40;81.10;;;;;;5092843;28;20063;-69
2021/01/07 03:59:11;;;;;;;0.40;0.40;;;5.40;81.20;;;;;;5093233;28;20115;-69
2021/01/07 04:01:37;;;;;;;0.52;0.52;;;5.30;81.20;;;;;;5093072;28;20440;-69
2021/01/07 04:04:03;;;;;;;0.52;0.52;;;5.40;81.30;;;;;;5092512;28;20073;-69
2021/01/07 04:06:28;;;;;;;0.38;0.38;;;5.40;81.40;;;;;;5093276;28;20031;-69
2021/01/07 04:08:54;;;;;;;0.30;0.30;;;5.40;81.40;;;;;;5093277;28;20020;-69
2021/01/07 04:11:20;;;;;;;0.63;0.63;;;5.30;81.40;;;;;;5092260;28;20028;-69
2021/01/07 04:13:45;;;;;;;1.13;0.50;;;5.30;81.40;;;;;;5093050;28;20031;-69
2021/01/07 04:16:12;;;;;;;0.50;0.50;;;5.40;81.50;;;;;;5093116;28;20516;-69
2021/01/07 04:18:38;;;;;;;0.38;0.38;;;5.30;81.50;;;;;;5092335;28;20034;-69
2021/01/07 04:21:03;;;;;;;0.40;0.40;;;5.30;81.50;;;;;;5092734;28;20048;-69
2021/01/07 04:23:29;;;;;;;1.35;1.10;;;5.30;81.80;;;;;;5093113;28;20051;-69
2021/01/07 04:25:55;;;;;;;1.05;0.68;;;5.30;81.50;;;;;;5092281;28;20426;-68
2021/01/07 04:28:20;;;;;;;0.60;0.60;;;5.30;81.50;;;;;;5092717;28;20373;-69
2021/01/07 04:30:46;;;;;;;0.47;0.47;;;5.40;81.60;;;;;;5092919;28;20032;-68
2021/01/07 04:33:12;;;;;;;0.85;0.40;;;5.40;81.70;;;;;;5091915;28;20126;-69
2021/01/07 04:35:38;;;;;;;0.63;0.63;;;5.30;81.60;;;;;;5093064;28;20020;-69
2021/01/07 04:38:04;;;;;;;0.60;0.60;;;5.30;81.60;;;;;;5092982;28;20054;-68
2021/01/07 04:40:29;;;;;;;0.52;0.52;;;5.30;81.60;;;;;;5091952;28;20040;-69
2021/01/07 04:42:56;;;;;;;0.50;0.50;;;5.30;81.70;;;;;;5092937;28;20031;-69
2021/01/07 04:45:22;;;;;;;0.70;0.70;;;5.30;81.70;;;;;;5091768;28;20523;-69
2021/01/07 04:47:51;;;;;;;0.50;0.50;;;5.30;81.70;;;;;;5092927;28;20077;-69
2021/01/07 04:50:17;;;;;;;0.63;0.63;;;5.30;81.70;;;;;;5092918;28;20081;-69
2021/01/07 04:52:43;;;;;;;0.77;0.77;;;5.30;81.80;;;;;;5091866;28;20036;-69
2021/01/07 04:55:12;;;;;;;1.08;0.68;;;5.30;81.80;;;;;;5092696;28;20031;-69
2021/01/07 04:57:39;;;;;;;0.60;0.60;;;5.30;81.90;;;;;;5092511;28;20024;-69
2021/01/07 05:00:07;;;;;;;0.40;0.40;;;5.30;82.00;;;;;;5091963;28;20028;-69
2021/01/07 05:02:33;;;;;;;1.02;0.88;;;5.30;82.10;;;;;;5092388;28;20475;-69
2021/01/07 05:05:00;;;;;;;0.63;0.63;;;5.30;82.10;;;;;;5092811;28;20360;-69
2021/01/07 05:07:26;;;;;;;0.40;0.40;;;5.20;82.70;;;;;;5091839;28;20077;-69
2021/01/07 05:10:03;;;;;;;0.40;0.40;;;5.30;82.10;;;;;;5092675;28;20477;-69
2021/01/07 05:12:29;;;;;;;0.30;0.30;;;5.30;82.10;;;;;;5092344;28;20364;-69
2021/01/07 05:14:54;;;;;;;0.85;0.77;;;5.30;82.10;;;;;;5091978;28;20138;-69
2021/01/07 05:17:20;;;;;;;0.40;0.40;;;5.30;82.00;;;;;;5092492;28;20032;-69
2021/01/07 05:19:46;;;;;;;1.50;1.17;;;5.30;82.00;;;;;;5092520;28;20028;-69
2021/01/07 05:22:12;;;;;;;0.30;0.30;;;5.30;82.10;;;;;;5091588;28;20048;-69
2021/01/07 05:24:38;;;;;;;3.42;0.90;;;5.30;82.10;;;;;;5092377;28;20479;-69
2021/01/07 05:27:11;;;;;;;0.50;0.50;;;5.30;82.10;;;;;;5092311;28;20526;-69
2021/01/07 05:29:39;;;;;;;1.10;1.08;;;5.30;82.10;;;;;;5091797;28;20098;-69
2021/01/07 05:32:06;;;;;;;0.75;0.75;;;5.30;82.00;;;;;;5092368;28;20487;-69
2021/01/07 05:34:31;;;;;;;0.40;0.40;;;5.30;82.00;;;;;;5091745;28;20036;-69
2021/01/07 05:37:00;;;;;;;0.65;0.65;;;5.30;82.10;;;;;;5092309;28;20364;-69
2021/01/07 05:39:33;;;;;;;0.40;0.40;;;5.30;82.20;;;;;;5092314;28;20034;-67
2021/01/07 05:42:01;;;;;;;0.70;0.70;;;5.30;82.10;;;;;;5109558;28;20036;-69
2021/01/07 05:44:30;;;;;;;0.57;0.57;;;5.30;82.10;;;;;;5113646;28;20088;-68
2021/01/07 05:46:56;;;;;;;0.52;0.52;;;5.30;82.10;;;;;;5101095;28;20075;-69
2021/01/07 05:49:34;;;;;;;0.63;0.63;;;5.30;82.10;;;;;;5095195;28;20063;-69
2021/01/07 05:51:59;;;;;;;0.60;0.60;;;5.30;82.20;;;;;;5095757;28;20047;-69
2021/01/07 05:54:25;;;;;;;0.60;0.60;;;5.20;82.20;;;;;;5095781;28;20463;-69
2021/01/07 05:56:53;;;;;;;1.13;1.10;;;5.30;82.30;;;;;;5095167;28;20110;-69
2021/01/07 05:59:19;;;;;;;0.98;0.98;;;5.30;82.30;;;;;;5095586;28;20035;-69
2021/01/07 06:01:46;;;;;;;0.50;0.50;;;5.30;82.30;;;;;;5095478;28;20036;-69
2021/01/07 06:04:12;;;;;;;0.40;0.40;;;5.20;82.20;;;;;;5109477;28;20427;-69
2021/01/07 06:06:40;;;;;;;0.40;0.40;;;5.30;82.30;;;;;;5101612;28;20035;-69
2021/01/07 06:09:07;;;;;;;0.52;0.52;;;5.30;82.30;;;;;;5113758;28;20032;-69
2021/01/07 06:11:35;;;;;;;3.53;0.82;;;5.30;82.30;;;;;;5099627;28;20495;-69
2021/01/07 06:14:02;;;;;;;1.00;0.73;;;5.30;82.30;;;;;;5114357;28;20026;-69
2021/01/07 06:16:27;;;;;;;0.85;0.80;;;5.30;82.30;;;;;;5113271;28;20031;-69
2021/01/07 06:19:28;;;;;;;0.82;0.82;;;5.20;82.30;;;;;;5114112;28;20038;-72
2021/01/07 06:21:54;;;;;;;0.38;0.38;;;5.30;82.30;;;;;;5110752;28;20044;-63
2021/01/07 06:24:25;;;;;;;0.43;0.43;;;5.30;82.30;;;;;;5107608;28;20581;-65
2021/01/07 06:26:51;;;;;;;1.13;1.02;;;5.20;82.30;;;;;;5107733;28;20023;-65
2021/01/07 06:29:16;;;;;;;0.77;0.77;;;5.20;82.40;;;;;;5109109;28;20016;-65
2021/01/07 06:31:43;;;;;;;0.82;0.82;;;5.30;82.30;;;;;;5107075;28;20032;-65
2021/01/07 06:34:11;;;;;;;0.40;0.40;;;5.20;82.30;;;;;;5109014;28;20048;-64
2021/01/07 06:36:45;;;;;;;0.40;0.40;;;5.20;82.30;;;;;;5108758;28;20039;-64
2021/01/07 06:39:11;;;;;;;1.42;0.93;;;5.30;82.50;;;;;;5112605;27;20027;-64
2021/01/07 06:41:37;;;;;;;1.38;1.00;;;5.30;82.50;;;;;;5109586;27;20097;-66
2021/01/07 06:44:04;;;;;;;0.75;0.75;;;5.20;82.50;;;;;;5112745;28;20028;-65
2021/01/07 06:46:46;;;;;;;1.00;0.70;;;5.30;82.60;;;;;;5108989;28;20114;-65
2021/01/07 06:49:19;;;;;;;0.60;0.60;;;5.20;82.60;;;;;;5111935;28;20039;-65
2021/01/07 06:52:02;;;;;;;0.57;0.57;;;5.20;82.60;;;;;;5111188;27;20031;-65
2021/01/07 06:54:34;;;;;;;1.30;0.80;;;5.20;82.70;;;;;;5110471;28;20026;-68
2021/01/07 06:57:03;;;;;;;1.13;0.98;;;5.20;82.60;;;;;;5110648;28;20035;-65
2021/01/07 06:59:29;;;;;;;0.85;0.85;;;5.30;82.70;;;;;;5107951;28;20023;-64
2021/01/07 07:01:57;;;;;;;0.82;0.82;;;5.20;82.60;;;;;;5108576;28;20039;-65
2021/01/07 07:04:30;;;;;;;0.60;0.60;;;5.30;82.70;;;;;;5105009;28;20027;-65
2021/01/07 07:06:57;;;;;;;3.20;1.20;;;5.30;82.70;;;;;;5111416;28;20236;-65
2021/01/07 07:09:25;;;;;;;0.90;0.90;;;5.30;82.60;;;;;;5107491;28;20035;-66
2021/01/07 07:11:54;;;;;;;1.95;1.05;;;5.30;82.50;;;;;;5109657;28;20032;-65
2021/01/07 07:14:21;;;;;;;1.60;1.10;;;5.30;82.50;;;;;;5108831;28;20016;-65
2021/01/07 07:16:48;;;;;;;0.60;0.60;;;5.40;82.50;;;;;;5111122;28;20039;-62
2021/01/07 07:19:24;;;;;;;2.25;1.20;;;5.30;82.40;;;;;;5109446;28;20028;-62
2021/01/07 07:22:00;;;;;;;0.57;0.40;;;5.40;82.40;;;;;;5107750;28;20114;-63
2021/01/07 07:24:42;;;;;;;1.55;0.82;;;5.40;82.30;;;;;;5108024;28;20112;-65
2021/01/07 07:27:11;;;;;;;0.50;0.50;;;5.40;82.20;;;;;;5109236;28;20023;-65
2021/01/07 07:29:43;;;;;;;1.13;1.02;;;5.40;82.20;;;;;;5110372;28;20080;-65
2021/01/07 07:32:26;;;;;;;0.82;0.82;;;5.40;82.10;;;;;;5111494;28;20032;-64
2021/01/07 07:34:53;;;;;;;0.77;0.77;;;5.40;82.10;;;;;;5108326;28;20028;-65
2021/01/07 07:37:21;;;;;;;0.47;0.47;;;5.40;82.10;;;;;;5109816;28;20039;-65
2021/01/07 07:39:57;;;;;;;1.52;1.10;;;5.40;82.10;;;;;;5105337;28;20027;-65
2021/01/07 07:42:26;;;;;;;1.75;1.27;;;5.40;82.10;;;;;;5107438;28;20167;-65
2021/01/07 07:44:51;;;;;;;0.40;0.40;;;5.40;82.20;;;;;;5109866;28;20077;-62
2021/01/07 07:47:20;;;;;;;0.95;0.95;;;5.40;82.20;;;;;;5109875;28;20487;-64
2021/01/07 07:49:54;;;;;;;1.13;1.00;;;5.40;82.20;;;;;;5110865;28;20031;-65
2021/01/07 07:52:20;;;;;;;;;;;5.40;82.10;;;;;;5103345;28;20035;-66
2021/01/07 07:54:56;;;;;;;0.75;0.75;;;5.50;82.10;;;;;;5102101;28;19904;-65
2021/01/07 07:57:22;;;;;;;1.50;1.17;;;5.50;82.00;;;;;;5101587;28;20031;-65
2021/01/07 07:59:48;;;;;;;5.95;0.98;;;5.50;82.10;;;;;;5106107;28;20072;-70
2021/01/07 08:02:16;;;;;;;0.77;0.77;;;5.50;82.00;;;;;;5101983;28;20479;-66
2021/01/07 08:04:43;;;;;;;1.55;1.30;;;5.50;82.00;;;;;;5110601;28;20103;-66
2021/01/07 08:07:09;;;;;;;1.65;1.13;;;5.60;81.90;;;;;;5098821;28;20028;-65
2021/01/07 08:09:35;;;;;;;3.00;1.40;;;5.50;81.80;;;;;;5098316;28;20490;-63
2021/01/07 08:12:01;;;;;;;3.50;1.10;;;5.60;81.90;;;;;;5094088;28;20427;-65
2021/01/07 08:14:30;;;;;;;2.60;1.65;;;5.60;82.50;;;;;;5110201;28;20026;-65
2021/01/07 08:16:57;;;;;;;1.77;1.05;;;5.60;81.80;;;;;;5105333;28;20118;-64
2021/01/07 08:19:29;;;;;;;2.05;1.58;;;5.60;81.80;;;;;;5105088;28;20030;-66
2021/01/07 08:21:55;;;;;;;2.50;1.58;;;5.60;81.70;;;;;;5101926;28;20139;-66
2021/01/07 08:24:24;;;;;;;2.13;1.10;;;5.60;81.60;;;;;;5105354;28;20802;-66
2021/01/07 08:27:16;;;;;;;3.13;1.75;;;5.60;81.70;;;;;;5100393;28;20039;-66
2021/01/07 08:29:46;;;;;;;5.05;1.58;;;5.60;81.70;;;;;;5096863;28;20561;-66
2021/01/07 08:32:16;;;;;;;1.67;1.38;;;5.60;81.70;;;;;;5102315;28;20050;-66
2021/01/07 08:34:44;;;;;;;5.57;1.25;;;5.60;81.70;;;;;;5100554;28;20042;-64
2021/01/07 08:37:13;;;;;;;3.50;1.88;;;5.60;81.60;;;;;;5102943;28;20119;-65
2021/01/07 08:39:40;;;;;;;2.30;1.55;;;5.60;81.60;;;;;;5098773;28;20028;-65
2021/01/07 08:42:06;;;;;;;1.75;1.23;;;5.70;81.60;;;;;;5099938;28;20043;-65
2021/01/07 08:44:32;;;;;;;1.85;0.88;;;5.60;81.60;;;;;;5105403;28;20035;-65
2021/01/07 08:46:58;;;;;;;2.65;1.02;;;5.60;81.50;;;;;;5095909;28;20032;-64
2021/01/07 08:49:24;;;;;;;2.20;1.13;;;5.60;81.50;;;;;;5094004;28;20085;-64
2021/01/07 08:51:53;;;;;;;2.42;1.30;;;5.60;81.60;;;;;;5090882;28;20110;-64
2021/01/07 08:54:24;;;;;;;2.58;0.73;;;5.60;81.60;;;;;;5091261;28;20020;-64
2021/01/07 08:56:52;;;;;;;0.63;0.63;;;5.60;81.50;;;;;;5105532;28;20122;-64
2021/01/07 08:59:20;;;;;;;1.10;0.98;;;5.70;81.50;;;;;;5097284;28;20035;-64
2021/01/07 09:01:50;;;;;;;5.05;1.30;;;5.70;81.50;;;;;;5098706;28;20352;-64
2021/01/07 09:04:30;;;;;;;1.27;1.15;;;5.60;81.40;;;;;;5100890;28;20150;-64
2021/01/07 09:07:04;;;;;;;1.25;1.13;;;5.70;81.60;;;;;;5108836;28;20028;-64
2021/01/07 09:09:40;;;;;;;8.20;1.40;;;5.60;81.50;;;;;;5108760;28;20021;-64
2021/01/07 09:12:10;;;;;;;1.20;1.08;;;5.60;81.50;;;;;;5110184;28;20375;-64
2021/01/07 09:14:46;;;;;;;1.70;1.25;;;5.60;81.60;;;;;;5109402;28;20016;-64
2021/01/07 09:17:13;;;;;;;1.42;1.27;;;5.60;81.60;;;;;;5102219;28;20047;-64
2021/01/07 09:19:39;;;;;;;2.78;1.33;;;5.60;81.60;;;;;;5101105;28;20077;-64
2021/01/07 09:22:05;;;;;;;2.22;1.45;;;5.60;81.70;;;;;;5113231;28;20040;-65
2021/01/07 09:24:32;;;;;;;1.40;1.23;;;5.70;81.70;;;;;;5112981;27;20031;-64
2021/01/07 09:27:15;;;;;;;2.00;1.40;;;5.60;81.60;;;;;;5113555;28;20542;-64
2021/01/07 09:29:41;;;;;;;1.83;1.40;;;5.70;81.90;;;;;;5110112;28;20132;-63
2021/01/07 09:32:08;;;;;;;2.35;1.30;;;5.70;81.80;;;;;;5102312;28;20034;-64
2021/01/07 09:34:34;;;;;;;4.90;1.50;;;5.70;81.80;;;;;;5099539;28;20026;-67
2021/01/07 09:37:05;;;;;;;2.05;1.38;;;5.80;81.80;;;;;;5100322;28;20115;-65
2021/01/07 09:39:31;;;;;;;1.30;1.17;;;5.80;81.80;;;;;;5104791;28;20031;-66
2021/01/07 09:41:56;;;;;;;1.23;1.13;;;5.80;81.70;;;;;;5100088;28;20036;-66
2021/01/07 09:44:22;;;;;;;2.15;1.25;;;5.80;81.60;;;;;;5102640;28;20028;-63
2021/01/07 09:46:55;;;;;;;1.42;0.90;;;5.80;81.50;;;;;;5100458;28;20032;-66
2021/01/07 09:49:21;;;;;;;2.80;1.37;;;5.80;81.50;;;;;;5094109;28;20161;-65
2021/01/07 09:51:47;;;;;;;5.43;1.15;;;5.80;81.40;;;;;;5094514;28;20075;-65
2021/01/07 09:54:13;;;;;;;1.50;1.13;;;5.80;81.40;;;;;;5094865;28;20024;-65
2021/01/07 09:56:38;;;;;;;0.82;0.82;;;5.80;81.40;;;;;;5098967;28;20386;-65
2021/01/07 09:59:04;;;;;;;0.75;0.75;;;5.80;81.50;;;;;;5098025;28;20020;-65
2021/01/07 10:01:30;;;;;;;3.03;1.25;;;5.80;81.50;;;;;;5095023;28;20036;-65
2021/01/07 10:03:55;;;;;;;1.33;1.20;;;5.80;81.50;;;;;;5094085;28;20365;-65
2021/01/07 10:06:21;;;;;;;2.45;1.23;;;5.90;81.60;;;;;;5097039;28;20043;-65
2021/01/07 10:08:46;;;;;;;1.77;1.20;;;5.80;81.50;;;;;;5100366;28;20031;-66
2021/01/07 10:11:12;;;;;;;0.70;0.65;;;5.80;81.70;;;;;;5107848;28;20032;-66
2021/01/07 10:13:39;;;;;;;3.10;1.30;;;5.80;81.70;;;;;;5114140;28;20536;-66
2021/01/07 10:16:05;;;;;;;4.47;1.10;;;5.80;81.80;;;;;;5112582;28;20034;-66
2021/01/07 10:18:30;;;;;;;0.95;0.88;;;5.80;81.90;;;;;;5112102;28;20106;-65
2021/01/07 10:21:00;;;;;;;0.88;0.77;;;5.90;81.90;;;;;;5112438;28;20035;-65
2021/01/07 10:23:28;;;;;;;1.30;1.20;;;5.90;82.00;;;;;;5110709;28;20506;-65
2021/01/07 10:25:56;;;;;;;1.08;0.95;;;5.90;82.00;;;;;;5112419;28;20023;-65
2021/01/07 10:28:26;;;;;;;0.95;0.90;;;5.90;82.00;;;;;;5110429;28;20031;-65
2021/01/07 10:30:51;;;;;;;3.83;1.10;;;5.90;82.00;;;;;;5111389;28;20028;-65
2021/01/07 10:33:18;;;;;;;1.85;1.23;;;5.90;82.00;;;;;;5110624;28;20032;-65
2021/01/07 10:35:43;;;;;;;1.48;0.98;;;6.00;82.10;;;;;;5112512;28;20050;-66
2021/01/07 10:38:11;;;;;;;1.80;1.23;;;6.00;82.10;;;;;;5110740;27;20505;-66
2021/01/07 10:40:44;;;;;;;1.52;1.10;;;6.00;82.10;;;;;;5112870;28;20028;-66
2021/01/07 10:43:12;;;;;;;2.03;1.30;;;6.00;82.20;;;;;;5110567;28;20046;-66
2021/01/07 10:45:40;;;;;;;3.75;1.58;;;6.10;82.20;;;;;;5108978;28;20028;-66
2021/01/07 10:48:13;;;;;;;1.58;1.30;;;6.10;82.30;;;;;;5110621;28;20031;-66
2021/01/07 10:50:42;;;;;;;2.67;1.98;;;6.20;82.30;;;;;;5108919;28;20032;-66
2021/01/07 10:53:26;;;;;;;4.22;1.30;;;6.20;82.20;;;;;;5099192;28;20028;-65
2021/01/07 10:55:57;;;;;;;2.95;1.23;;;6.30;82.40;;;;;;5098167;28;20035;-65
2021/01/07 10:58:28;;;;;;;1.75;0.98;;;6.30;82.40;;;;;;5098400;28;20476;-66
2021/01/07 11:01:04;;;;;;;3.90;1.25;;;6.40;82.30;;;;;;5107644;28;20073;-66
2021/01/07 11:03:56;;;;;;;3.03;1.10;;;6.40;82.40;;;;;;5099246;28;20120;-66
2021/01/07 11:06:26;;;;;;;2.10;1.05;;;6.50;82.30;;;;;;5097424;28;20169;-67
2021/01/07 11:09:13;;;;;;;0.80;0.80;;;6.50;82.10;;;;;;5099722;28;20023;-64
2021/01/07 11:11:45;;;;;;;2.67;1.20;;;6.50;82.00;;;;;;5097945;28;20039;-66
2021/01/07 11:14:24;;;;;;;1.08;0.95;;;6.60;82.20;;;;;;5101730;28;20498;-65
2021/01/07 11:17:05;;;;;;;0.70;0.70;;;6.60;82.20;;;;;;5097765;28;20494;-68
2021/01/07 11:19:32;;;;;;;1.02;0.93;;;6.70;82.00;;;;;;5097381;28;20387;-66
2021/01/07 11:22:05;;;;;;;0.77;0.73;;;6.70;82.00;;;;;;5101724;28;20560;-66
2021/01/07 11:24:31;;;;;;;5.10;0.60;;;6.80;81.90;;;;;;5094752;28;20057;-66
2021/01/07 11:27:02;;;;;;;1.45;1.10;;;6.80;81.80;;;;;;5092642;28;20035;-66
2021/01/07 11:29:29;;;;;;;1.10;0.80;;;6.80;81.80;;;;;;5094509;28;20028;-64
2021/01/07 11:31:58;;;;;;;2.60;0.90;;;6.90;81.70;;;;;;5093431;28;20106;-63
2021/01/07 11:34:28;;;;;;;1.38;0.90;;;6.90;81.60;;;;;;5092965;28;20039;-63
2021/01/07 11:37:16;;;;;;;1.50;0.90;;;7.00;81.50;;;;;;5093480;28;20027;-63
2021/01/07 11:39:57;;;;;;;1.52;1.08;;;7.00;81.50;;;;;;5094025;28;20070;-63
2021/01/07 11:42:33;;;;;;;3.40;0.80;;;7.00;81.30;;;;;;5091771;28;20093;-63
2021/01/07 11:45:11;;;;;;;1.33;0.75;;;7.00;81.40;;;;;;5106365;28;20027;-63
2021/01/07 11:47:46;;;;;;;2.10;0.77;;;7.00;81.30;;;;;;5104806;28;20059;-68
2021/01/07 11:50:15;;;;;;;0.98;0.80;;;7.10;81.00;;;;;;5105730;28;20063;-67
2021/01/07 11:52:44;;;;;;;2.25;1.00;;;7.10;81.00;;;;;;5100412;28;20032;-67
2021/01/07 11:55:12;;;;;;;0.95;0.77;;;7.10;80.90;;;;;;5104755;28;20024;-67
2021/01/07 11:57:40;;;;;;;2.33;0.75;;;7.10;80.80;;;;;;5101935;28;20061;-67
2021/01/07 12:00:11;;;;;;;2.78;1.20;;;7.10;80.70;;;;;;5103034;28;20028;-67
2021/01/07 12:02:42;;;;;;;0.60;0.60;;;7.10;80.70;;;;;;5101985;28;20499;-67
2021/01/07 12:05:12;;;;;;;3.83;0.98;;;7.10;80.60;;;;;;5103155;28;20020;-66
2021/01/07 12:07:51;;;;;;;2.17;0.93;;;7.10;80.60;;;;;;5103351;28;20063;-68
2021/01/07 12:10:20;;;;;;;0.95;0.63;;;7.20;80.50;;;;;;5102651;28;20297;-66
2021/01/07 12:12:54;;;;;;;2.70;0.90;;;7.20;80.50;;;;;;5102869;28;20023;-71
2021/01/07 12:15:20;;;;;;;1.60;0.85;;;7.10;80.40;;;;;;5108277;28;20059;-65
2021/01/07 12:17:46;;;;;;;1.30;0.85;;;7.20;80.50;;;;;;5101409;28;20034;-67
2021/01/07 12:20:12;;;;;;;1.27;0.80;;;7.20;80.50;;;;;;5104838;28;20028;-63
2021/01/07 12:22:40;;;;;;;0.57;0.57;;;7.20;80.30;;;;;;5106546;28;20521;-65
2021/01/07 12:25:06;;;;;;;0.85;0.65;;;7.20;80.20;;;;;;5102617;28;20024;-64
2021/01/07 12:27:34;;;;;;;0.50;0.50;;;7.30;80.20;;;;;;5105628;28;20119;-65
2021/01/07 12:30:04;;;;;;;0.70;0.63;;;7.30;80.10;;;;;;5099172;28;20076;-66
2021/01/07 12:32:31;;;;;;;0.65;0.65;;;7.30;80.10;;;;;;5096780;28;20039;-66
2021/01/07 12:35:08;;;;;;;1.95;0.63;;;7.30;80.10;;;;;;5102399;28;20028;-65
2021/01/07 12:38:04;;;;;;;0.77;0.77;;;7.30;80.00;;;;;;5096201;28;20067;-65
2021/01/07 12:40:34;;;;;;;4.15;0.82;;;7.30;80.10;;;;;;5093878;28;20078;-64
2021/01/07 12:42:59;;;;;;;2.15;1.00;;;7.30;80.00;;;;;;5099306;28;20131;-64
2021/01/07 12:45:27;;;;;;;1.67;0.80;;;7.30;80.10;;;;;;5102678;28;20095;-64
2021/01/07 12:47:53;;;;;;;0.52;0.52;;;7.30;80.10;;;;;;5104091;28;20067;-65
2021/01/07 12:50:21;;;;;;;1.63;0.90;;;7.40;80.10;;;;;;5110357;28;20032;-65
2021/01/07 12:52:48;;;;;;;0.60;0.55;;;7.30;80.00;;;;;;5104112;28;20023;-66
2021/01/07 12:55:14;;;;;;;3.13;0.90;;;7.40;80.00;;;;;;5107838;28;20031;-74
2021/01/07 12:57:56;;;;;;;1.48;0.85;;;7.40;80.60;;;;;;5104580;28;20031;-64
2021/01/07 13:00:23;;;;;;;0.50;0.50;;;7.40;80.40;;;;;;5116035;28;20031;-64
2021/01/07 13:03:00;;;;;;;0.93;0.70;;;7.40;80.40;;;;;;5111724;28;20051;-65